Time;durP1;ratioP1;P1;durP2;ratioP2;P2;SDS_P1;SDS_P2;PMS_P1;PMS_P2;Temp;Humidity;BMP_temperature;BMP_pressure;BME280_temperature;BME280_humidity;BME280_pressure;Samples;Min_cycle;Max_cycle;Signal;HPM_P1;HPM_P2
2024/04/10 00:01:49;;;;;;;2.90;0.68;;;9.90;61.50;;;;;;5490836;26;20230;-70
2024/04/10 00:04:18;;;;;;;2.10;0.80;;;9.90;60.90;;;;;;5490711;26;20261;-69
2024/04/10 00:06:44;;;;;;;2.40;0.90;;;9.90;60.90;;;;;;5490434;26;20257;-69
2024/04/10 00:09:12;;;;;;;4.43;0.73;;;9.80;61.30;;;;;;5490500;26;20246;-69
2024/04/10 00:11:38;;;;;;;1.98;0.80;;;9.90;62.20;;;;;;5490507;26;20977;-69
2024/04/10 00:14:07;;;;;;;3.27;1.10;;;9.90;61.30;;;;;;5490341;26;20261;-69
2024/04/10 00:16:35;;;;;;;5.25;1.60;;;9.90;61.20;;;;;;5490545;26;20500;-70
2024/04/10 00:19:04;;;;;;;1.90;0.60;;;9.90;61.20;;;;;;5490743;26;20214;-69
2024/04/10 00:21:32;;;;;;;2.40;1.10;;;9.90;60.80;;;;;;5490683;26;20214;-70
2024/04/10 00:24:01;;;;;;;5.35;0.80;;;9.80;60.60;;;;;;5489276;26;20270;-69
2024/04/10 00:26:27;;;;;;;3.38;1.00;;;9.80;60.70;;;;;;5490701;26;20214;-69
2024/04/10 00:28:55;;;;;;;2.20;0.80;;;9.80;61.20;;;;;;5490444;26;20274;-70
2024/04/10 00:31:21;;;;;;;2.10;0.90;;;9.80;61.50;;;;;;5490418;26;20214;-70
2024/04/10 00:33:53;;;;;;;2.40;0.80;;;9.80;60.20;;;;;;5490239;26;20693;-70
2024/04/10 00:36:19;;;;;;;5.05;1.25;;;9.80;60.00;;;;;;5490375;26;20210;-70
2024/04/10 00:38:48;;;;;;;3.88;1.00;;;9.80;60.00;;;;;;5490196;26;20210;-70
2024/04/10 00:41:14;;;;;;;2.40;1.05;;;9.80;60.50;;;;;;5490163;26;20218;-69
2024/04/10 00:43:44;;;;;;;2.08;0.80;;;9.90;60.30;;;;;;5490481;26;20221;-70
2024/04/10 00:46:14;;;;;;;3.13;0.85;;;9.80;59.70;;;;;;5490563;26;20218;-69
2024/04/10 00:48:43;;;;;;;2.67;0.80;;;9.70;60.70;;;;;;5489957;26;20207;-69
2024/04/10 00:51:16;;;;;;;5.13;1.17;;;9.70;60.80;;;;;;5490024;26;20668;-70
2024/04/10 00:53:46;;;;;;;2.00;0.90;;;9.70;60.30;;;;;;5490013;26;20218;-70
2024/04/10 00:56:12;;;;;;;5.13;0.70;;;9.80;60.90;;;;;;5490325;26;20771;-70
2024/04/10 00:58:41;;;;;;;1.85;0.65;;;9.80;59.90;;;;;;5489921;26;20270;-70
2024/04/10 01:01:08;;;;;;;2.10;0.70;;;9.80;60.00;;;;;;5490159;26;20261;-70
2024/04/10 01:03:38;;;;;;;1.92;0.60;;;9.80;60.40;;;;;;5489839;26;20253;-70
2024/04/10 01:06:06;;;;;;;2.17;0.90;;;9.90;59.90;;;;;;5489772;26;20260;-70
2024/04/10 01:08:39;;;;;;;3.45;0.80;;;9.90;59.50;;;;;;5489811;26;20285;-70
2024/04/10 01:11:06;;;;;;;2.00;0.70;;;9.90;59.30;;;;;;5489836;26;20249;-70
2024/04/10 01:13:35;;;;;;;1.80;0.60;;;9.90;59.00;;;;;;5489896;26;20210;-70
2024/04/10 01:16:02;;;;;;;1.90;0.70;;;9.90;60.00;;;;;;5489523;26;20214;-69
2024/04/10 01:18:31;;;;;;;1.95;0.70;;;9.90;59.60;;;;;;5489923;26;20311;-70
2024/04/10 01:20:57;;;;;;;2.13;0.80;;;9.90;59.80;;;;;;5489449;26;20249;-70
2024/04/10 01:23:28;;;;;;;2.20;0.70;;;9.90;60.00;;;;;;5489561;26;20218;-69
2024/04/10 01:25:54;;;;;;;2.20;0.90;;;9.90;59.10;;;;;;5489495;26;20455;-70
2024/04/10 01:28:23;;;;;;;3.00;1.00;;;9.90;59.70;;;;;;5489243;26;20222;-70
2024/04/10 01:30:49;;;;;;;1.90;0.80;;;9.90;59.30;;;;;;5489369;26;20214;-70
2024/04/10 01:33:17;;;;;;;1.90;0.70;;;9.90;59.60;;;;;;5489352;26;20535;-70
2024/04/10 01:35:43;;;;;;;1.90;0.80;;;9.80;59.20;;;;;;5492586;26;20245;-70
2024/04/10 01:38:12;;;;;;;1.90;0.70;;;9.80;59.20;;;;;;5492790;26;20218;-69
2024/04/10 01:40:40;;;;;;;2.03;0.80;;;9.80;59.70;;;;;;5492822;26;20492;-69
2024/04/10 01:43:09;;;;;;;1.98;0.70;;;9.80;59.70;;;;;;5492814;26;20376;-70
2024/04/10 01:45:36;;;;;;;1.80;0.68;;;9.70;59.50;;;;;;5493113;26;20214;-70
2024/04/10 01:48:06;;;;;;;2.75;0.82;;;9.60;59.40;;;;;;5492523;26;20645;-69
2024/04/10 01:50:32;;;;;;;2.00;0.80;;;9.60;60.10;;;;;;5492662;26;20668;-70
2024/04/10 01:53:00;;;;;;;2.00;0.70;;;9.70;60.30;;;;;;5492618;26;20264;-71
2024/04/10 01:55:26;;;;;;;2.35;0.80;;;9.60;59.70;;;;;;5493306;26;20230;-70
2024/04/10 01:57:57;;;;;;;2.73;0.83;;;9.60;59.50;;;;;;5492982;26;20260;-70
2024/04/10 02:00:25;;;;;;;2.00;0.70;;;9.70;59.70;;;;;;5492373;26;20850;-70
2024/04/10 02:02:54;;;;;;;2.05;0.80;;;9.70;60.20;;;;;;5492644;26;20218;-69
2024/04/10 02:05:20;;;;;;;3.53;0.90;;;9.50;59.60;;;;;;5492513;26;20214;-69
2024/04/10 02:07:48;;;;;;;2.40;1.10;;;9.50;60.00;;;;;;5492712;26;20273;-70
2024/04/10 02:10:14;;;;;;;3.38;0.93;;;9.40;60.50;;;;;;5492683;26;20447;-69
2024/04/10 02:12:43;;;;;;;3.10;0.80;;;9.40;60.30;;;;;;5492532;26;20222;-70
2024/04/10 02:15:12;;;;;;;7.78;0.95;;;9.30;60.20;;;;;;5492277;26;20708;-70
2024/04/10 02:17:40;;;;;;;2.40;0.80;;;9.30;60.40;;;;;;5492520;26;20249;-70
2024/04/10 02:20:07;;;;;;;2.08;0.75;;;9.30;60.30;;;;;;5492083;26;20241;-70
2024/04/10 02:22:36;;;;;;;4.45;0.70;;;9.20;60.40;;;;;;5492220;26;20218;-69
2024/04/10 02:25:02;;;;;;;2.33;0.70;;;9.10;61.30;;;;;;5492192;26;20210;-70
2024/04/10 02:27:31;;;;;;;1.90;0.60;;;9.10;61.90;;;;;;5492281;26;20218;-70
2024/04/10 02:29:57;;;;;;;2.17;0.85;;;9.10;62.70;;;;;;5492042;26;20218;-69
2024/04/10 02:32:28;;;;;;;2.37;0.80;;;9.10;62.20;;;;;;5492103;26;20256;-69
2024/04/10 02:34:54;;;;;;;2.00;0.70;;;9.10;61.70;;;;;;5492413;26;20511;-70
2024/04/10 02:37:23;;;;;;;2.00;0.70;;;9.10;62.10;;;;;;5492019;26;20218;-69
2024/04/10 02:39:49;;;;;;;2.85;0.77;;;9.10;63.00;;;;;;5492261;26;20492;-70
2024/04/10 02:42:18;;;;;;;2.30;0.70;;;9.20;63.00;;;;;;5491928;26;20281;-70
2024/04/10 02:44:44;;;;;;;2.65;1.02;;;9.20;63.10;;;;;;5491945;26;20525;-69
2024/04/10 02:47:13;;;;;;;2.60;0.80;;;9.20;62.70;;;;;;5490746;26;20226;-69
2024/04/10 02:49:42;;;;;;;2.40;0.70;;;9.30;63.20;;;;;;5492192;26;20245;-69
2024/04/10 02:52:10;;;;;;;2.20;0.68;;;9.20;63.40;;;;;;5491899;26;20214;-70
2024/04/10 02:54:36;;;;;;;2.22;0.80;;;9.30;63.30;;;;;;5491797;26;20740;-70
2024/04/10 02:57:05;;;;;;;1.80;0.60;;;9.30;63.00;;;;;;5491803;26;20218;-69
2024/04/10 02:59:33;;;;;;;3.63;0.80;;;9.30;63.70;;;;;;5491998;26;20451;-69
2024/04/10 03:02:02;;;;;;;2.33;0.82;;;9.30;63.10;;;;;;5492064;26;20230;-70
2024/04/10 03:04:27;;;;;;;2.08;0.77;;;9.30;63.10;;;;;;5491612;26;20265;-70
2024/04/10 03:06:59;;;;;;;2.00;0.60;;;9.30;63.40;;;;;;5491703;26;20214;-70
2024/04/10 03:09:25;;;;;;;2.08;0.60;;;9.30;63.70;;;;;;5491668;26;20499;-70
2024/04/10 03:11:54;;;;;;;2.30;0.80;;;9.30;64.50;;;;;;5491436;26;20261;-69
2024/04/10 03:14:20;;;;;;;2.10;1.05;;;9.40;64.40;;;;;;5491934;26;20215;-70
2024/04/10 03:16:48;;;;;;;3.40;1.00;;;9.40;65.00;;;;;;5491924;26;20249;-69
2024/04/10 03:19:15;;;;;;;2.10;0.70;;;9.30;64.50;;;;;;5491398;26;20455;-70
2024/04/10 03:21:43;;;;;;;2.00;0.80;;;9.40;65.40;;;;;;5491252;26;20222;-70
2024/04/10 03:24:12;;;;;;;2.60;1.00;;;9.40;65.40;;;;;;5491486;26;20391;-70
2024/04/10 03:26:40;;;;;;;2.50;0.90;;;9.40;65.10;;;;;;5491551;26;20262;-70
2024/04/10 03:29:06;;;;;;;2.55;0.80;;;9.50;64.50;;;;;;5491299;26;20218;-69
2024/04/10 03:31:35;;;;;;;2.40;0.80;;;9.50;64.90;;;;;;5491301;26;20252;-70
2024/04/10 03:34:01;;;;;;;2.30;1.10;;;9.40;64.90;;;;;;5491261;26;20456;-69
2024/04/10 03:36:29;;;;;;;1.90;0.60;;;9.40;65.70;;;;;;5491240;26;20593;-69
2024/04/10 03:38:55;;;;;;;2.28;1.02;;;9.40;66.90;;;;;;5491090;26;20968;-70
2024/04/10 03:41:27;;;;;;;2.07;1.07;;;9.50;66.70;;;;;;5491212;26;20210;-69
2024/04/10 03:43:55;;;;;;;2.03;1.00;;;9.50;66.50;;;;;;5491137;26;20503;-69
2024/04/10 03:46:21;;;;;;;2.45;0.95;;;9.50;66.20;;;;;;5490965;26;20258;-69
2024/04/10 03:48:50;;;;;;;3.45;1.00;;;9.50;66.20;;;;;;5491222;26;20222;-70
2024/04/10 03:51:19;;;;;;;2.00;0.80;;;9.50;66.00;;;;;;5491030;26;20214;-70
2024/04/10 03:53:45;;;;;;;1.90;0.80;;;9.50;66.10;;;;;;5490940;26;20249;-69
2024/04/10 03:56:13;;;;;;;3.45;1.35;;;9.50;66.60;;;;;;5490884;26;20218;-70
2024/04/10 03:58:42;;;;;;;4.88;0.90;;;9.40;66.50;;;;;;5490603;26;20210;-69
2024/04/10 04:01:11;;;;;;;4.00;1.80;;;9.40;66.80;;;;;;5491067;26;20735;-69
2024/04/10 04:03:38;;;;;;;4.38;1.67;;;9.30;68.00;;;;;;5490965;26;20214;-70
2024/04/10 04:06:07;;;;;;;3.03;1.30;;;9.40;66.70;;;;;;5490928;26;20564;-70
2024/04/10 04:08:33;;;;;;;3.60;1.50;;;9.40;67.00;;;;;;5490875;26;20700;-70
2024/04/10 04:11:04;;;;;;;2.53;1.20;;;9.30;66.90;;;;;;5490862;26;20260;-69
2024/04/10 04:13:32;;;;;;;2.72;1.02;;;9.30;67.40;;;;;;5491175;26;20489;-70
2024/04/10 04:16:01;;;;;;;3.38;1.20;;;9.30;67.50;;;;;;5490790;26;20210;-70
2024/04/10 04:18:30;;;;;;;2.85;1.00;;;9.40;67.70;;;;;;5490743;26;20248;-70
2024/04/10 04:20:55;;;;;;;2.22;1.00;;;9.40;67.70;;;;;;5491337;26;20210;-70
2024/04/10 04:23:24;;;;;;;2.10;0.80;;;9.40;67.30;;;;;;5490616;26;20742;-70
2024/04/10 04:25:50;;;;;;;2.10;0.90;;;9.40;67.00;;;;;;5490646;26;20505;-70
2024/04/10 04:28:19;;;;;;;3.07;0.97;;;9.40;67.30;;;;;;5490658;26;20210;-69
2024/04/10 04:30:48;;;;;;;3.95;0.80;;;9.30;67.10;;;;;;5490651;26;20789;-70
2024/04/10 04:33:20;;;;;;;2.20;1.00;;;9.40;67.40;;;;;;5490611;26;20256;-70
2024/04/10 04:35:47;;;;;;;2.75;0.93;;;9.40;69.10;;;;;;5490679;26;20222;-69
2024/04/10 04:38:15;;;;;;;2.10;0.90;;;9.40;68.40;;;;;;5490906;26;20734;-70
2024/04/10 04:40:42;;;;;;;3.33;1.20;;;9.40;69.00;;;;;;5490545;26;20277;-70
2024/04/10 04:43:11;;;;;;;2.55;1.00;;;9.50;68.30;;;;;;5468761;26;21261;-71
2024/04/10 04:45:38;;;;;;;3.20;1.30;;;9.40;68.10;;;;;;5454628;26;20226;-70
2024/04/10 04:48:08;;;;;;;2.40;1.17;;;9.50;69.40;;;;;;5483798;26;20222;-70
2024/04/10 04:50:41;;;;;;;3.30;1.10;;;9.50;69.50;;;;;;5483536;26;20222;-70
2024/04/10 04:53:10;;;;;;;3.45;1.05;;;9.50;70.10;;;;;;5488185;26;20226;-70
2024/04/10 04:55:36;;;;;;;2.83;1.00;;;9.50;69.90;;;;;;5489164;26;20254;-70
2024/04/10 04:58:04;;;;;;;2.40;1.30;;;9.50;68.80;;;;;;5489703;26;20544;-69
2024/04/10 05:00:31;;;;;;;2.15;0.90;;;9.50;68.40;;;;;;5489978;26;20502;-70
2024/04/10 05:03:00;;;;;;;3.03;1.20;;;9.60;68.80;;;;;;5490402;26;20265;-70
2024/04/10 05:05:26;;;;;;;2.30;0.95;;;9.50;68.60;;;;;;5490013;26;20735;-70
2024/04/10 05:07:57;;;;;;;2.97;1.10;;;9.50;69.00;;;;;;5489671;26;20214;-70
2024/04/10 05:10:23;;;;;;;2.03;1.00;;;9.50;69.40;;;;;;5489279;26;20504;-69
2024/04/10 05:12:53;;;;;;;7.53;0.90;;;9.50;69.40;;;;;;5489502;26;20222;-70
2024/04/10 05:15:19;;;;;;;2.40;0.93;;;9.50;69.60;;;;;;5489482;26;20500;-70
2024/04/10 05:17:49;;;;;;;3.10;1.30;;;9.50;70.00;;;;;;5490056;26;20214;-70
2024/04/10 05:20:15;;;;;;;3.38;1.60;;;9.60;69.90;;;;;;5489730;26;20496;-70
2024/04/10 05:22:44;;;;;;;3.80;1.25;;;9.60;69.20;;;;;;5489710;26;20792;-70
2024/04/10 05:25:13;;;;;;;2.10;1.00;;;9.60;68.80;;;;;;5489855;26;20215;-70
2024/04/10 05:27:42;;;;;;;2.75;1.13;;;9.60;68.50;;;;;;5489561;26;20257;-70
2024/04/10 05:30:10;;;;;;;3.10;1.27;;;9.60;69.40;;;;;;5489322;26;20314;-69
2024/04/10 05:32:39;;;;;;;3.30;1.80;;;9.60;69.40;;;;;;5489289;26;20552;-70
2024/04/10 05:35:09;;;;;;;2.70;1.50;;;9.70;70.20;;;;;;5489145;26;20333;-70
2024/04/10 05:37:38;;;;;;;3.53;1.40;;;9.70;70.20;;;;;;5488986;26;20257;-70
2024/04/10 05:40:06;;;;;;;2.80;1.90;;;9.70;70.50;;;;;;5489410;26;20684;-70
2024/04/10 05:42:38;;;;;;;2.50;0.98;;;9.70;70.10;;;;;;5489237;26;20704;-70
2024/04/10 05:45:05;;;;;;;2.28;1.10;;;9.70;70.00;;;;;;5489372;26;20214;-70
2024/04/10 05:47:34;;;;;;;2.20;0.95;;;9.70;70.10;;;;;;5489206;26;20218;-70
2024/04/10 05:50:00;;;;;;;2.72;1.00;;;9.70;70.50;;;;;;5488907;26;20214;-70
2024/04/10 05:52:30;;;;;;;5.83;1.10;;;9.70;70.40;;;;;;5488883;26;20734;-70
2024/04/10 05:54:56;;;;;;;1.85;0.70;;;9.70;69.70;;;;;;5488849;26;20452;-70
2024/04/10 05:57:26;;;;;;;2.50;1.00;;;9.80;69.60;;;;;;5488805;26;20214;-69
2024/04/10 05:59:55;;;;;;;2.30;0.95;;;9.70;69.70;;;;;;5488545;26;20448;-70
2024/04/10 06:02:26;;;;;;;2.28;0.90;;;9.70;69.80;;;;;;5489226;26;20222;-69
2024/04/10 06:04:53;;;;;;;2.15;0.82;;;9.60;69.80;;;;;;5489447;26;20210;-70
2024/04/10 06:07:21;;;;;;;2.10;0.90;;;9.70;69.90;;;;;;5488797;26;20218;-70
2024/04/10 06:09:54;;;;;;;3.33;1.00;;;9.70;70.50;;;;;;5488632;26;20568;-70
2024/04/10 06:12:20;;;;;;;4.22;1.25;;;9.70;69.20;;;;;;5488876;26;20240;-70
2024/04/10 06:14:53;;;;;;;2.47;1.00;;;9.80;69.60;;;;;;5488519;26;20218;-69
2024/04/10 06:17:22;;;;;;;2.35;1.00;;;9.80;69.70;;;;;;5488456;26;20532;-70
2024/04/10 06:19:51;;;;;;;2.50;1.15;;;9.80;69.70;;;;;;5488495;26;20218;-70
2024/04/10 06:22:17;;;;;;;2.65;1.40;;;9.80;70.30;;;;;;5491203;26;20256;-70
2024/04/10 06:24:46;;;;;;;3.75;1.58;;;9.80;71.00;;;;;;5492223;26;20218;-70
2024/04/10 06:27:13;;;;;;;3.50;2.20;;;9.90;70.30;;;;;;5492043;26;20727;-70
2024/04/10 06:29:45;;;;;;;3.40;1.10;;;9.90;70.30;;;;;;5491916;26;20258;-70
2024/04/10 06:32:12;;;;;;;2.40;0.90;;;10.00;68.00;;;;;;5492361;26;20261;-69
2024/04/10 06:34:43;;;;;;;3.90;1.40;;;10.10;66.90;;;;;;5492212;26;20253;-70
2024/04/10 06:37:09;;;;;;;5.28;1.10;;;10.10;67.20;;;;;;5492077;26;20541;-70
2024/04/10 06:39:38;;;;;;;2.55;1.15;;;10.10;66.80;;;;;;5491785;26;20219;-70
2024/04/10 06:42:05;;;;;;;3.70;0.93;;;10.10;66.60;;;;;;5492096;26;20214;-70
2024/04/10 06:44:33;;;;;;;3.17;0.90;;;10.20;65.30;;;;;;5491772;26;20248;-70
2024/04/10 06:46:59;;;;;;;2.00;0.80;;;10.20;66.60;;;;;;5491779;26;20538;-70
2024/04/10 06:49:29;;;;;;;3.75;1.70;;;10.10;64.30;;;;;;5491778;26;20322;-70
2024/04/10 06:51:57;;;;;;;3.35;0.88;;;10.10;64.50;;;;;;5491773;26;20251;-71
2024/04/10 06:54:26;;;;;;;3.30;1.00;;;10.00;63.40;;;;;;5491729;26;20210;-70
2024/04/10 06:56:52;;;;;;;2.38;1.00;;;10.00;63.90;;;;;;5491663;26;20257;-70
2024/04/10 06:59:21;;;;;;;4.00;1.10;;;10.00;65.10;;;;;;5491519;26;20218;-70
2024/04/10 07:01:47;;;;;;;3.47;1.00;;;10.00;65.60;;;;;;5491976;26;20459;-70
2024/04/10 07:04:16;;;;;;;2.70;1.15;;;10.00;67.50;;;;;;5491444;26;20762;-70
2024/04/10 07:06:42;;;;;;;2.53;0.98;;;10.10;66.60;;;;;;5491491;26;20215;-70
2024/04/10 07:09:14;;;;;;;3.10;1.27;;;10.20;64.90;;;;;;5491904;26;20260;-70
2024/04/10 07:11:40;;;;;;;3.15;1.33;;;10.20;64.30;;;;;;5491534;26;21017;-70
2024/04/10 07:14:08;;;;;;;4.07;1.10;;;10.30;64.90;;;;;;5491691;26;20225;-70
2024/04/10 07:16:34;;;;;;;2.00;0.90;;;10.30;64.30;;;;;;5491721;26;20455;-70
2024/04/10 07:19:05;;;;;;;2.47;1.00;;;10.40;65.00;;;;;;5491593;26;20214;-70
2024/04/10 07:21:34;;;;;;;3.25;0.80;;;10.50;64.90;;;;;;5491289;26;20262;-70
2024/04/10 07:24:03;;;;;;;2.80;1.30;;;10.60;63.50;;;;;;5491102;26;20564;-70
2024/04/10 07:26:33;;;;;;;3.60;1.08;;;10.70;63.90;;;;;;5491218;26;20214;-70
2024/04/10 07:29:03;;;;;;;3.55;1.40;;;10.70;63.40;;;;;;5491043;26;20226;-70
2024/04/10 07:31:31;;;;;;;5.03;1.58;;;10.80;64.10;;;;;;5490666;26;20214;-70
2024/04/10 07:34:01;;;;;;;2.72;1.13;;;10.90;63.40;;;;;;5491038;26;20601;-70
2024/04/10 07:36:27;;;;;;;3.50;1.00;;;11.00;64.80;;;;;;5491041;26;20704;-70
2024/04/10 07:38:56;;;;;;;3.55;1.20;;;11.00;64.40;;;;;;5490940;26;20218;-70
2024/04/10 07:41:23;;;;;;;3.22;1.00;;;11.10;62.50;;;;;;5490893;26;20210;-70
2024/04/10 07:43:54;;;;;;;3.63;1.40;;;11.20;61.90;;;;;;5491015;26;20226;-70
2024/04/10 07:46:21;;;;;;;3.95;1.10;;;11.20;61.60;;;;;;5491002;26;20245;-70
2024/04/10 07:48:52;;;;;;;2.50;1.10;;;11.30;60.30;;;;;;5490932;26;20744;-70
2024/04/10 07:51:18;;;;;;;4.65;1.48;;;11.30;60.30;;;;;;5491220;26;20253;-70
2024/04/10 07:53:47;;;;;;;55.22;4.53;;;11.30;60.60;;;;;;5490871;26;20257;-70
2024/04/10 07:56:13;;;;;;;12.93;1.65;;;11.40;61.80;;;;;;5490773;26;20780;-70
2024/04/10 07:58:42;;;;;;;4.38;1.60;;;11.40;60.50;;;;;;5490737;26;20314;-70
2024/04/10 08:01:11;;;;;;;5.50;1.55;;;11.50;61.20;;;;;;5490544;26;20265;-70
2024/04/10 08:03:39;;;;;;;4.97;1.45;;;11.60;60.20;;;;;;5490615;26;20226;-70
2024/04/10 08:06:08;;;;;;;2.78;1.15;;;11.60;60.00;;;;;;5490636;26;20253;-70
2024/04/10 08:08:39;;;;;;;4.78;1.27;;;11.70;60.10;;;;;;5490708;26;20214;-70
2024/04/10 08:11:07;;;;;;;5.88;1.35;;;11.70;59.40;;;;;;5490920;26;20214;-70
2024/04/10 08:13:36;;;;;;;5.28;1.40;;;11.80;60.00;;;;;;5490461;26;20262;-70
2024/04/10 08:16:04;;;;;;;3.83;1.52;;;11.90;59.40;;;;;;5490474;26;20249;-70
2024/04/10 08:18:37;;;;;;;2.80;1.10;;;11.90;59.20;;;;;;5490453;26;20214;-70
2024/04/10 08:21:04;;;;;;;4.45;1.30;;;11.90;59.60;;;;;;5490420;26;20569;-71
2024/04/10 08:23:34;;;;;;;7.88;2.08;;;11.90;59.80;;;;;;5490404;26;20222;-70
2024/04/10 08:26:08;;;;;;;5.03;2.00;;;11.90;60.80;;;;;;5490881;26;20684;-70
2024/04/10 08:28:38;;;;;;;6.13;2.10;;;12.00;60.10;;;;;;5490799;26;20306;-70
2024/04/10 08:31:05;;;;;;;3.70;1.58;;;12.00;60.90;;;;;;5490629;26;20215;-70
2024/04/10 08:33:36;;;;;;;3.60;1.35;;;12.10;59.60;;;;;;5490374;26;20286;-70
2024/04/10 08:36:02;;;;;;;5.25;1.40;;;12.10;58.90;;;;;;5490337;26;20214;-70
2024/04/10 08:38:31;;;;;;;4.05;1.60;;;12.10;58.80;;;;;;5490098;26;20222;-70
2024/04/10 08:40:58;;;;;;;5.13;1.80;;;12.00;59.20;;;;;;5490195;26;20532;-70
2024/04/10 08:43:31;;;;;;;3.88;2.25;;;12.00;59.00;;;;;;5488659;26;20262;-70
2024/04/10 08:45:57;;;;;;;5.88;2.90;;;12.00;58.40;;;;;;5489847;26;20210;-70
2024/04/10 08:48:28;;;;;;;6.57;1.80;;;12.00;59.30;;;;;;5490402;26;20695;-69
2024/04/10 08:50:59;;;;;;;5.40;1.75;;;12.00;59.60;;;;;;5490397;26;20490;-70
2024/04/10 08:53:30;;;;;;;3.97;1.40;;;11.90;60.50;;;;;;5490088;26;20234;-70
2024/04/10 08:55:56;;;;;;;5.10;1.50;;;12.00;60.00;;;;;;5489971;26;20692;-69
2024/04/10 08:58:25;;;;;;;2.53;1.35;;;11.90;59.30;;;;;;5489990;26;20245;-69
2024/04/10 09:00:51;;;;;;;3.53;1.58;;;11.80;59.50;;;;;;5489547;26;20262;-70
2024/04/10 09:03:19;;;;;;;3.25;1.70;;;11.70;59.80;;;;;;5490131;26;20222;-69
2024/04/10 09:07:06;;;;;;;4.68;1.73;;;11.70;60.60;;;;;;5545816;25;20544;-71
2024/04/10 09:09:32;;;;;;;5.03;1.63;;;11.60;59.90;;;;;;5546057;25;20253;-71
2024/04/10 09:12:01;;;;;;;4.93;1.40;;;11.50;60.30;;;;;;5545916;25;20251;-71
2024/04/10 09:14:27;;;;;;;2.70;1.25;;;11.50;61.40;;;;;;5546239;25;20212;-72
2024/04/10 09:17:03;;;;;;;3.95;1.42;;;11.40;62.30;;;;;;5545807;25;20213;-71
2024/04/10 09:19:29;;;;;;;5.57;1.73;;;11.40;62.60;;;;;;5545891;25;20247;-71
2024/04/10 09:21:59;;;;;;;3.23;1.20;;;11.40;61.30;;;;;;5546066;25;20621;-71
2024/04/10 09:24:29;;;;;;;5.50;1.85;;;11.40;61.30;;;;;;5545604;25;20441;-71
2024/04/10 09:26:58;;;;;;;4.40;1.58;;;11.40;61.20;;;;;;5546495;25;20248;-71
2024/04/10 09:29:28;;;;;;;5.13;1.92;;;11.40;61.00;;;;;;5546202;25;20538;-71
2024/04/10 09:32:04;;;;;;;3.20;1.27;;;11.40;60.20;;;;;;5545881;25;20204;-71
2024/04/10 09:34:30;;;;;;;4.28;1.27;;;11.40;60.60;;;;;;5545538;25;20212;-71
2024/04/10 09:36:59;;;;;;;3.13;1.55;;;11.40;59.40;;;;;;5545890;25;20301;-71
2024/04/10 09:39:27;;;;;;;3.53;1.15;;;11.40;58.70;;;;;;5545477;25;20209;-71
2024/04/10 09:42:00;;;;;;;4.15;1.40;;;11.30;57.90;;;;;;5545523;25;20311;-71
2024/04/10 09:44:30;;;;;;;4.20;1.30;;;11.20;57.80;;;;;;5545490;25;20208;-71
2024/04/10 09:47:00;;;;;;;4.72;1.52;;;11.10;58.40;;;;;;5545329;25;20526;-71
2024/04/10 09:49:27;;;;;;;4.05;1.40;;;11.10;60.50;;;;;;5545634;25;20285;-71
2024/04/10 09:51:59;;;;;;;5.70;1.10;;;11.10;60.10;;;;;;5545285;25;20213;-71
2024/04/10 09:54:28;;;;;;;3.00;1.42;;;11.00;61.20;;;;;;5545736;25;20216;-71
2024/04/10 09:56:58;;;;;;;6.57;2.00;;;11.00;62.50;;;;;;5545155;25;20205;-72
2024/04/10 09:59:24;;;;;;;5.25;1.40;;;11.00;62.40;;;;;;5545946;25;20302;-71
2024/04/10 10:01:54;;;;;;;6.72;1.83;;;11.10;62.50;;;;;;5545156;25;20217;-71
2024/04/10 10:04:20;;;;;;;3.45;1.73;;;11.10;61.80;;;;;;5545255;25;20749;-71
2024/04/10 10:06:49;;;;;;;5.03;1.55;;;11.10;63.50;;;;;;5544884;25;20229;-71
2024/04/10 10:09:23;;;;;;;3.25;1.40;;;11.20;63.20;;;;;;5545020;25;20209;-71
2024/04/10 10:12:01;;;;;;;48.83;25.75;;;11.20;62.60;;;;;;5545024;25;20209;-71
2024/04/10 10:14:27;;;;;;;12.40;5.20;;;11.20;60.50;;;;;;5545450;25;20213;-71
2024/04/10 10:17:08;;;;;;;13.20;7.68;;;11.10;60.20;;;;;;5537465;25;20224;-70
2024/04/10 10:19:35;;;;;;;41.75;22.95;;;11.10;60.30;;;;;;5529082;25;20741;-71
2024/04/10 10:22:04;;;;;;;6.45;3.95;;;11.00;59.70;;;;;;5528845;25;20614;-71
2024/04/10 10:24:30;;;;;;;88.53;53.08;;;11.00;60.80;;;;;;5528861;25;20210;-70
2024/04/10 10:27:05;;;;;;;15.20;10.97;;;11.00;62.80;;;;;;5528694;25;20745;-71
2024/04/10 10:29:31;;;;;;;8.75;4.45;;;11.00;63.60;;;;;;5528557;25;20457;-71
2024/04/10 10:32:06;;;;;;;5.35;2.35;;;11.00;64.00;;;;;;5528840;25;20217;-71
2024/04/10 10:34:32;;;;;;;3.95;1.90;;;11.00;65.50;;;;;;5528698;25;20208;-71
2024/04/10 10:37:06;;;;;;;3.70;2.00;;;11.10;65.90;;;;;;5529020;25;20213;-71
2024/04/10 10:39:32;;;;;;;4.00;1.92;;;11.20;64.60;;;;;;5528701;25;20256;-70
2024/04/10 10:42:07;;;;;;;5.50;1.80;;;11.30;63.10;;;;;;5528626;25;20317;-70
2024/04/10 10:44:33;;;;;;;3.97;1.52;;;11.30;61.60;;;;;;5528504;25;20679;-71
2024/04/10 10:47:02;;;;;;;3.63;1.80;;;11.40;58.90;;;;;;5528594;25;20252;-70
2024/04/10 10:49:30;;;;;;;5.82;1.90;;;11.40;59.30;;;;;;5528488;25;20442;-70
2024/04/10 10:52:00;;;;;;;5.75;1.80;;;11.30;59.70;;;;;;5528474;25;20635;-70
2024/04/10 10:54:26;;;;;;;4.55;2.13;;;11.30;60.30;;;;;;5528368;25;20707;-70
2024/04/10 10:56:55;;;;;;;6.20;1.70;;;11.30;60.20;;;;;;5528698;25;20259;-70
2024/04/10 10:59:25;;;;;;;6.63;2.22;;;11.20;59.80;;;;;;5528362;25;20256;-70
2024/04/10 11:01:54;;;;;;;5.78;1.73;;;11.20;59.80;;;;;;5529200;25;20255;-70
2024/04/10 11:04:20;;;;;;;6.07;2.35;;;11.20;60.40;;;;;;5528224;25;20210;-70
2024/04/10 11:06:49;;;;;;;3.15;1.23;;;11.20;62.40;;;;;;5528492;25;20229;-70
2024/04/10 11:09:15;;;;;;;5.53;1.67;;;11.20;61.30;;;;;;5528102;25;20209;-70
2024/04/10 11:11:45;;;;;;;3.15;1.80;;;11.10;60.20;;;;;;5528478;25;20229;-70
2024/04/10 11:14:13;;;;;;;3.92;1.80;;;11.10;61.00;;;;;;5528412;25;20213;-70
2024/04/10 11:16:44;;;;;;;2.95;1.23;;;11.10;60.90;;;;;;5528117;25;20259;-70
2024/04/10 11:19:11;;;;;;;5.32;1.65;;;11.10;62.80;;;;;;5528208;25;20213;-72
2024/04/10 11:21:39;;;;;;;4.68;1.58;;;11.10;64.00;;;;;;5528412;25;20217;-71
2024/04/10 11:24:05;;;;;;;4.70;1.63;;;11.00;64.20;;;;;;5527994;25;20256;-71
2024/04/10 11:26:34;;;;;;;2.80;1.40;;;11.10;65.30;;;;;;5528191;25;20717;-71
2024/04/10 11:29:00;;;;;;;3.78;1.20;;;11.20;63.30;;;;;;5526294;25;20511;-71
2024/04/10 11:31:29;;;;;;;4.43;1.33;;;11.30;63.50;;;;;;5528171;25;20267;-71
2024/04/10 11:33:58;;;;;;;7.10;2.03;;;11.80;65.80;;;;;;5527612;25;20229;-71
2024/04/10 11:36:27;;;;;;;4.47;1.60;;;12.30;62.30;;;;;;5528004;25;20217;-71
2024/04/10 11:38:53;;;;;;;4.10;1.80;;;12.60;59.60;;;;;;5527981;25;20213;-71
2024/04/10 11:41:21;;;;;;;4.53;1.70;;;12.90;59.60;;;;;;5527668;25;20225;-71
2024/04/10 11:43:49;;;;;;;7.30;1.60;;;13.50;57.60;;;;;;5528239;25;20676;-71
2024/04/10 11:46:17;;;;;;;3.63;1.70;;;13.90;57.40;;;;;;5527834;25;20503;-71
2024/04/10 11:48:45;;;;;;;4.83;2.13;;;14.10;54.30;;;;;;5527927;25;20559;-71
2024/04/10 11:51:16;;;;;;;3.87;1.80;;;14.60;53.80;;;;;;5527807;25;20454;-71
2024/04/10 11:53:42;;;;;;;4.20;1.63;;;14.90;50.50;;;;;;5527594;25;20505;-71
2024/04/10 11:56:11;;;;;;;2.70;1.53;;;15.30;49.80;;;;;;5528179;25;20772;-71
2024/04/10 11:58:40;;;;;;;5.90;1.80;;;15.70;48.10;;;;;;5527449;25;20778;-71
2024/04/10 12:01:08;;;;;;;6.13;1.83;;;16.10;47.30;;;;;;5527407;25;21019;-71
2024/04/10 12:03:34;;;;;;;3.10;1.40;;;16.40;45.80;;;;;;5527453;25;20489;-71
2024/04/10 12:06:04;;;;;;;6.03;1.83;;;16.20;45.70;;;;;;5527179;25;20458;-71
2024/04/10 12:08:32;;;;;;;5.77;1.50;;;16.00;46.40;;;;;;5527349;25;20494;-71
2024/04/10 12:11:02;;;;;;;5.50;1.67;;;16.40;45.60;;;;;;5527335;25;20442;-71
2024/04/10 12:13:28;;;;;;;4.20;1.80;;;16.80;46.10;;;;;;5527393;25;20502;-71
2024/04/10 12:15:57;;;;;;;3.83;1.07;;;16.80;41.00;;;;;;5527232;25;20827;-71
2024/04/10 12:18:23;;;;;;;5.00;1.37;;;16.90;42.60;;;;;;5527337;25;20447;-71
2024/04/10 12:20:51;;;;;;;5.73;1.50;;;17.00;45.10;;;;;;5527374;25;21044;-71
2024/04/10 12:23:17;;;;;;;3.60;1.10;;;17.10;45.00;;;;;;5527435;25;20446;-71
2024/04/10 12:25:49;;;;;;;4.70;1.57;;;17.20;45.50;;;;;;5527011;25;20448;-71
2024/04/10 12:28:15;;;;;;;5.10;1.60;;;17.10;46.70;;;;;;5527088;25;20452;-71
2024/04/10 12:30:43;;;;;;;4.47;1.57;;;17.00;45.80;;;;;;5527484;25;20948;-71
2024/04/10 12:33:10;;;;;;;4.53;1.40;;;16.80;46.20;;;;;;5527169;26;20449;-71
2024/04/10 12:38:25;;;;;;;3.43;1.37;;;16.30;47.10;;;;;;5529948;26;20527;-71
2024/04/10 12:41:05;;;;;;;4.20;1.67;;;16.00;44.90;;;;;;5526260;25;20442;-71
2024/04/10 12:43:34;;;;;;;4.93;1.30;;;15.60;45.20;;;;;;5526996;25;20501;-71
2024/04/10 12:46:03;;;;;;;3.47;1.33;;;15.20;45.70;;;;;;5526452;25;20448;-71
2024/04/10 12:48:32;;;;;;;3.30;1.70;;;14.80;47.10;;;;;;5527083;25;20458;-71
2024/04/10 12:51:01;;;;;;;3.80;1.73;;;14.50;49.30;;;;;;5526607;25;21034;-71
2024/04/10 12:53:27;;;;;;;6.03;1.50;;;14.30;50.10;;;;;;5526866;25;20592;-71
2024/04/10 12:55:59;;;;;;;5.50;2.00;;;14.10;49.70;;;;;;5526505;25;20454;-71
2024/04/10 12:58:25;;;;;;;2.87;1.33;;;13.80;50.80;;;;;;5526615;25;20521;-71
2024/04/10 13:00:53;;;;;;;7.17;1.50;;;13.50;51.30;;;;;;5526683;25;20446;-71